Time;durP1;ratioP1;P1;durP2;ratioP2;P2;SDS_P1;SDS_P2;PMS_P1;PMS_P2;Temp;Humidity;BMP_temperature;BMP_pressure;BME280_temperature;BME280_humidity;BME280_pressure;Samples;Min_cycle;Max_cycle;Signal;HPM_P1;HPM_P2
2021/10/25 00:01:49;;;;;;;;;;;5.30;99.90;;;;;;21058166;28;19919;-80
2021/10/25 00:11:49;;;;;;;;;;;4.70;99.90;;;;;;21091087;28;19923;-80
2021/10/25 00:21:50;;;;;;;;;;;4.80;99.90;;;;;;21092141;28;19916;-80
2021/10/25 00:31:50;;;;;;;;;;;4.90;99.90;;;;;;21091470;28;19916;-80
2021/10/25 00:41:52;;;;;;;;;;;4.90;99.90;;;;;;21089484;28;19912;-80
2021/10/25 00:51:54;;;;;;;;;;;5.00;99.90;;;;;;21082951;28;19938;-81
2021/10/25 01:01:54;;;;;;;;;;;5.00;99.90;;;;;;21065769;28;19920;-81
2021/10/25 01:11:56;;;;;;;;;;;4.70;99.90;;;;;;21065726;28;20290;-78
2021/10/25 01:21:57;;;;;;;;;;;4.80;99.90;;;;;;21075006;28;19912;-80
2021/10/25 01:31:59;;;;;;;;;;;4.90;99.90;;;;;;21061002;28;19917;-81
2021/10/25 01:42:00;;;;;;;;;;;4.90;99.90;;;;;;21052389;28;20309;-80
2021/10/25 01:52:00;;;;;;;;;;;4.70;99.90;;;;;;21052370;28;19942;-81
2021/10/25 02:02:02;;;;;;;;;;;4.60;99.90;;;;;;21055907;28;19896;-81
2021/10/25 02:12:03;;;;;;;;;;;4.30;99.90;;;;;;21055605;28;19923;-80
2021/10/25 02:22:05;;;;;;;;;;;4.20;99.90;;;;;;21055371;28;19973;-80
2021/10/25 02:32:07;;;;;;;;;;;4.40;99.90;;;;;;21055235;28;19917;-80
2021/10/25 02:42:08;;;;;;;;;;;4.40;99.90;;;;;;21072728;28;19979;-80
2021/10/25 02:52:09;;;;;;;;;;;4.40;99.90;;;;;;21050043;28;19916;-81
2021/10/25 03:02:12;;;;;;;;;;;4.40;99.90;;;;;;21053619;28;19917;-80
2021/10/25 03:12:13;;;;;;;;;;;4.50;99.90;;;;;;21067764;28;19915;-80
2021/10/25 03:22:15;;;;;;;;;;;4.60;99.90;;;;;;21040524;28;19917;-79
2021/10/25 03:32:16;;;;;;;;;;;4.40;99.90;;;;;;20963029;28;19917;-80
2021/10/25 03:42:31;;;;;;;;;;;4.40;99.90;;;;;;20957223;28;19913;-79
2021/10/25 04:33:28;;;;;;;;;;;4.30;99.90;;;;;;21009610;28;20333;-79
2021/10/25 04:43:39;;;;;;;;;;;4.50;99.90;;;;;;20999745;28;20299;-79
2021/10/25 04:53:41;;;;;;;;;;;4.40;99.90;;;;;;21042232;28;19912;-78
2021/10/25 05:03:43;;;;;;;;;;;4.40;99.90;;;;;;21036080;28;19916;-78
2021/10/25 05:13:43;;;;;;;;;;;4.30;99.90;;;;;;20998832;28;20058;-78
2021/10/25 05:23:44;;;;;;;;;;;4.20;99.90;;;;;;21047341;28;19983;-79
2021/10/25 05:33:45;;;;;;;;;;;4.40;99.90;;;;;;21023554;28;20011;-81
2021/10/25 05:43:46;;;;;;;;;;;4.40;99.90;;;;;;21009114;28;19923;-80
2021/10/25 05:53:47;;;;;;;;;;;4.30;99.90;;;;;;20976007;28;19913;-81
2021/10/25 06:03:53;;;;;;;;;;;4.40;99.90;;;;;;20990016;28;20011;-81
2021/10/25 06:13:59;;;;;;;;;;;4.50;99.90;;;;;;20973432;28;19920;-81
2021/10/25 06:24:00;;;;;;;;;;;4.40;99.90;;;;;;20988215;28;20458;-81
2021/10/25 06:34:20;;;;;;;;;;;4.40;99.90;;;;;;20988258;28;20332;-80
2021/10/25 06:55:09;;;;;;;;;;;4.60;99.90;;;;;;20987111;28;20341;-80
2021/10/25 07:05:13;;;;;;;;;;;4.60;99.90;;;;;;20986888;28;19923;-80
2021/10/25 07:15:16;;;;;;;;;;;4.60;99.90;;;;;;20984505;28;20282;-80
2021/10/25 08:06:48;;;;;;;;;;;5.20;99.90;;;;;;20982975;28;19923;-81
2021/10/25 08:16:52;;;;;;;;;;;5.50;99.90;;;;;;20983522;28;19912;-81
2021/10/25 08:26:53;;;;;;;;;;;5.80;99.90;;;;;;20995184;28;19917;-79
2021/10/25 08:47:08;;;;;;;;;;;6.30;99.90;;;;;;20997257;28;19916;-81
2021/10/25 08:57:10;;;;;;;;;;;6.50;99.90;;;;;;21013399;28;19912;-81
2021/10/25 09:07:11;;;;;;;;;;;6.80;99.90;;;;;;20994013;28;19962;-81
2021/10/25 09:17:12;;;;;;;;;;;7.10;99.90;;;;;;20994087;28;19952;-80
2021/10/25 09:27:36;;;;;;;;;;;7.20;99.90;;;;;;21003842;28;19916;-81
2021/10/25 09:37:45;;;;;;;;;;;7.20;99.90;;;;;;20990599;28;20422;-81
2021/10/25 09:58:20;;;;;;;;;;;10.60;99.90;;;;;;20989249;28;19913;-79
2021/10/25 10:08:28;;;;;;;;;;;12.10;99.90;;;;;;20988122;28;20375;-82
2021/10/25 10:18:30;;;;;;;;;;;11.70;99.90;;;;;;20987341;28;19963;-82
2021/10/25 10:29:09;;;;;;;;;;;13.20;99.90;;;;;;20987590;28;21749;-82
2021/10/25 10:39:17;;;;;;;;;;;14.80;99.90;;;;;;20985545;28;20114;-81
2021/10/25 10:49:50;;;;;;;;;;;14.00;99.90;;;;;;20990595;28;19949;-81
2021/10/25 10:59:56;;;;;;;;;;;14.00;99.90;;;;;;21003181;28;19919;-82
2021/10/25 11:10:00;;;;;;;;;;;14.80;99.90;;;;;;21003838;28;19916;-79
2021/10/25 11:20:01;;;;;;;;;;;14.40;99.90;;;;;;21010584;28;19913;-80
2021/10/25 11:30:12;;;;;;;;;;;15.70;99.90;;;;;;21000053;28;20337;-79
2021/10/25 11:40:16;;;;;;;;;;;16.40;99.90;;;;;;21035622;28;20279;-78
2021/10/25 11:50:21;;;;;;;;;;;16.00;99.90;;;;;;21046144;28;19916;-78
2021/10/25 12:00:24;;;;;;;;;;;17.20;99.90;;;;;;21026573;28;19913;-79
2021/10/25 12:10:33;;;;;;;;;;;17.40;99.90;;;;;;21029615;28;19928;-81
2021/10/25 12:20:35;;;;;;;;;;;16.50;99.90;;;;;;21049206;28;19995;-80
2021/10/25 12:30:36;;;;;;;;;;;16.80;99.90;;;;;;21042863;28;19924;-80
2021/10/25 12:40:43;;;;;;;;;;;17.60;99.90;;;;;;21036541;28;19917;-80
2021/10/25 12:50:50;;;;;;;;;;;17.60;99.90;;;;;;20989683;28;20469;-80
2021/10/25 13:00:51;;;;;;;;;;;18.60;99.90;;;;;;20986769;28;19919;-80
2021/10/25 13:10:52;;;;;;;;;;;18.10;99.90;;;;;;21002498;28;19916;-80
2021/10/25 13:20:53;;;;;;;;;;;18.20;99.90;;;;;;21046420;28;19938;-80
2021/10/25 13:30:53;;;;;;;;;;;18.50;99.90;;;;;;21014900;28;19923;-81
2021/10/25 13:40:54;;;;;;;;;;;17.70;99.90;;;;;;21047928;28;20448;-80
2021/10/25 13:50:56;;;;;;;;;;;17.60;99.90;;;;;;21050742;28;19931;-82
2021/10/25 14:00:57;;;;;;;;;;;18.40;99.90;;;;;;21039336;28;20270;-79
2021/10/25 14:10:58;;;;;;;;;;;18.70;99.90;;;;;;21037897;28;19961;-81
2021/10/25 14:20:59;;;;;;;;;;;18.60;99.90;;;;;;20961505;28;19980;-78
2021/10/25 14:31:00;;;;;;;;;;;18.80;99.90;;;;;;20981401;28;19923;-81
2021/10/25 14:41:11;;;;;;;;;;;18.60;99.90;;;;;;20978930;28;19939;-82
2021/10/25 15:01:31;;;;;;;;;;;17.40;99.90;;;;;;20961351;28;19920;-79
2021/10/25 15:11:32;;;;;;;;;;;17.10;99.90;;;;;;20960366;28;19916;-80
2021/10/25 15:21:33;;;;;;;;;;;17.70;99.90;;;;;;20969805;28;19913;-81
2021/10/25 15:31:34;;;;;;;;;;;16.20;99.90;;;;;;20964113;28;19924;-79
2021/10/25 15:41:34;;;;;;;;;;;16.50;99.90;;;;;;20970538;28;19948;-81
2021/10/25 15:51:36;;;;;;;;;;;15.40;99.90;;;;;;20924684;28;20185;-81
2021/10/25 16:01:36;;;;;;;;;;;14.70;99.90;;;;;;20943183;28;19947;-81
2021/10/25 16:11:38;;;;;;;;;;;13.60;99.90;;;;;;20921598;28;19931;-79
2021/10/25 16:21:39;;;;;;;;;;;13.00;99.90;;;;;;20921789;28;19916;-80
2021/10/25 16:31:41;;;;;;;;;;;11.80;99.90;;;;;;20950226;28;19936;-82
2021/10/25 16:41:42;;;;;;;;;;;11.30;99.90;;;;;;20926515;28;19967;-81
2021/10/25 16:51:58;;;;;;;;;;;10.60;99.90;;;;;;20917846;28;19925;-81
2021/10/25 17:12:19;;;;;;;;;;;10.10;99.90;;;;;;20955723;28;19925;-80
2021/10/25 17:22:21;;;;;;;;;;;9.90;99.90;;;;;;20938699;28;19962;-80
2021/10/25 17:32:26;;;;;;;;;;;9.10;99.90;;;;;;20936566;28;19936;-81
2021/10/25 17:42:27;;;;;;;;;;;9.20;99.90;;;;;;20892961;28;19960;-81
2021/10/25 17:52:28;;;;;;;;;;;9.10;99.90;;;;;;20886242;28;19925;-81
2021/10/25 18:02:30;;;;;;;;;;;8.70;99.90;;;;;;20885105;28;20401;-80
2021/10/25 18:12:30;;;;;;;;;;;9.10;99.90;;;;;;20886052;28;19925;-79
2021/10/25 18:22:31;;;;;;;;;;;8.60;99.90;;;;;;20897393;28;19978;-81
2021/10/25 18:32:32;;;;;;;;;;;8.30;99.90;;;;;;20897235;28;19909;-80
2021/10/25 18:42:33;;;;;;;;;;;7.80;99.90;;;;;;20902949;28;20311;-82
2021/10/25 18:52:33;;;;;;;;;;;7.80;99.90;;;;;;20904088;28;19928;-82
2021/10/25 19:02:38;;;;;;;;;;;7.90;99.90;;;;;;20865275;28;19921;-81
2021/10/25 19:12:38;;;;;;;;;;;7.70;99.90;;;;;;20892859;28;19932;-83
2021/10/25 19:22:40;;;;;;;;;;;7.60;99.90;;;;;;20888170;28;20677;-82
2021/10/25 19:32:41;;;;;;;;;;;7.40;99.90;;;;;;20880590;28;20419;-80
2021/10/25 19:42:43;;;;;;;;;;;7.20;99.90;;;;;;20879409;28;19925;-81
2021/10/25 19:52:44;;;;;;;;;;;7.10;99.90;;;;;;20882699;28;19921;-81
2021/10/25 20:02:45;;;;;;;;;;;7.00;99.90;;;;;;20884287;28;19917;-80
2021/10/25 20:12:46;;;;;;;;;;;6.80;99.90;;;;;;20903233;28;20856;-81
2021/10/25 20:22:47;;;;;;;;;;;6.80;99.90;;;;;;20898692;28;19927;-78
2021/10/25 20:32:48;;;;;;;;;;;6.80;99.90;;;;;;20908772;28;19916;-82
2021/10/25 20:42:49;;;;;;;;;;;7.00;99.90;;;;;;20940844;28;20004;-80
2021/10/25 20:52:50;;;;;;;;;;;7.20;99.90;;;;;;20949561;28;19980;-79
2021/10/25 21:02:53;;;;;;;;;;;7.30;99.90;;;;;;20962086;28;19913;-80
2021/10/25 21:12:54;;;;;;;;;;;7.10;99.90;;;;;;20956448;28;19940;-81
2021/10/25 21:22:54;;;;;;;;;;;7.00;99.90;;;;;;20951432;28;19912;-81
2021/10/25 21:32:55;;;;;;;;;;;6.50;99.90;;;;;;20953065;28;19943;-81
2021/10/25 21:42:56;;;;;;;;;;;6.40;99.90;;;;;;20954914;28;19963;-80
2021/10/25 21:52:59;;;;;;;;;;;6.50;99.90;;;;;;20951222;28;20446;-80
2021/10/25 22:03:00;;;;;;;;;;;6.80;99.90;;;;;;20951920;28;20004;-81
2021/10/25 22:13:00;;;;;;;;;;;7.10;99.90;;;;;;20918079;28;19916;-80
2021/10/25 22:23:01;;;;;;;;;;;7.10;99.90;;;;;;20954238;28;19912;-79
2021/10/25 22:33:02;;;;;;;;;;;7.20;99.90;;;;;;20971182;28;20417;-80
2021/10/25 22:43:03;;;;;;;;;;;7.30;99.90;;;;;;20986965;28;19916;-80
2021/10/25 22:53:03;;;;;;;;;;;7.20;99.90;;;;;;21006611;28;20178;-81
2021/10/25 23:03:04;;;;;;;;;;;6.90;99.90;;;;;;20992448;28;20302;-80
2021/10/25 23:13:05;;;;;;;;;;;6.50;99.90;;;;;;20987611;28;20363;-79
2021/10/25 23:23:06;;;;;;;;;;;6.40;99.90;;;;;;20968222;28;19999;-78
2021/10/25 23:33:07;;;;;;;;;;;6.30;99.90;;;;;;21001428;28;19920;-81
2021/10/25 23:43:08;;;;;;;;;;;6.30;99.90;;;;;;21045353;28;19920;-81
2021/10/25 23:53:08;;;;;;;;;;;6.30;99.90;;;;;;21068633;28;19950;-80
